Time;durP1;ratioP1;P1;durP2;ratioP2;P2;SDS_P1;SDS_P2;PMS_P1;PMS_P2;Temp;Humidity;BMP_temperature;BMP_pressure;BME280_temperature;BME280_humidity;BME280_pressure;Samples;Min_cycle;Max_cycle;Signal;HPM_P1;HPM_P2
2023/05/22 00:00:51;;;;;;;7.37;6.77;;;22.80;26.50;;;;;;10455525;28;20724;-70
2023/05/22 00:05:57;;;;;;;6.00;5.60;;;22.80;27.10;;;;;;10455703;28;20245;-69
2023/05/22 00:11:00;;;;;;;6.87;6.37;;;22.70;26.70;;;;;;10455164;28;20225;-69
2023/05/22 00:16:06;;;;;;;6.57;6.07;;;22.60;26.80;;;;;;10455053;28;20284;-69
2023/05/22 00:21:09;;;;;;;7.20;6.47;;;22.50;27.00;;;;;;10455207;28;20679;-69
2023/05/22 00:26:15;;;;;;;6.27;5.77;;;22.50;27.00;;;;;;10454982;28;20229;-69
2023/05/22 00:31:20;;;;;;;6.47;5.87;;;22.40;26.90;;;;;;10454630;28;20237;-69
2023/05/22 00:36:23;;;;;;;6.77;6.20;;;22.30;26.90;;;;;;10453840;28;20300;-69
2023/05/22 00:41:26;;;;;;;6.87;6.37;;;22.20;26.80;;;;;;10454401;28;20232;-69
2023/05/22 00:46:32;;;;;;;6.80;5.63;;;22.20;26.80;;;;;;10453874;28;20229;-69
2023/05/22 00:51:36;;;;;;;7.43;6.73;;;22.10;26.90;;;;;;10454251;28;20244;-69
2023/05/22 00:56:41;;;;;;;7.17;6.57;;;22.00;26.90;;;;;;10452725;28;20239;-69
2023/05/22 01:01:46;;;;;;;6.47;5.97;;;22.00;27.30;;;;;;10453769;28;20231;-69
2023/05/22 01:06:49;;;;;;;7.20;5.97;;;21.90;27.40;;;;;;10453432;28;21142;-69
2023/05/22 01:11:59;;;;;;;7.20;6.60;;;21.80;27.20;;;;;;10452847;28;20225;-69
2023/05/22 01:17:21;;;;;;;7.47;6.87;;;21.70;28.00;;;;;;10453012;28;20233;-69
2023/05/22 01:22:37;;;;;;;7.13;6.57;;;21.60;28.00;;;;;;10453007;28;20303;-69
2023/05/22 01:28:02;;;;;;;7.53;6.93;;;21.50;28.10;;;;;;10450159;28;20252;-70
2023/05/22 01:33:07;;;;;;;7.53;6.93;;;21.40;28.10;;;;;;10451582;28;20252;-69
2023/05/22 01:38:11;;;;;;;7.43;6.83;;;21.40;28.10;;;;;;10452157;28;20348;-69
2023/05/22 01:43:15;;;;;;;7.33;6.73;;;21.30;27.80;;;;;;10451998;28;20315;-68
2023/05/22 01:48:20;;;;;;;7.17;6.47;;;21.20;27.90;;;;;;10452064;28;20248;-69
2023/05/22 01:53:32;;;;;;;6.07;5.47;;;21.20;28.10;;;;;;10451925;28;20332;-69
2023/05/22 01:58:42;;;;;;;7.90;7.20;;;21.00;28.50;;;;;;10450808;28;20243;-68
2023/05/22 02:03:55;;;;;;;7.87;7.27;;;20.90;28.80;;;;;;10452459;28;20316;-69
2023/05/22 02:09:00;;;;;;;6.10;5.70;;;20.80;28.90;;;;;;10450753;28;20845;-70
2023/05/22 02:14:04;;;;;;;7.20;6.70;;;20.80;28.50;;;;;;10450532;28;20253;-70
2023/05/22 02:19:08;;;;;;;6.97;6.23;;;20.70;28.50;;;;;;10450578;28;20315;-70
2023/05/22 02:24:11;;;;;;;6.43;5.83;;;20.60;28.70;;;;;;10461437;28;20256;-70
2023/05/22 02:29:15;;;;;;;6.33;5.83;;;20.60;28.50;;;;;;10492111;28;20232;-69
2023/05/22 02:34:19;;;;;;;8.00;7.30;;;20.50;28.60;;;;;;10491914;28;20254;-70
2023/05/22 02:39:22;;;;;;;10.33;7.80;;;20.50;29.20;;;;;;10491261;28;20227;-69
2023/05/22 02:44:26;;;;;;;7.47;6.87;;;20.40;28.80;;;;;;10491331;28;20705;-70
2023/05/22 02:49:30;;;;;;;7.00;6.50;;;20.30;28.80;;;;;;10491510;28;20262;-70
2023/05/22 02:54:33;;;;;;;8.03;7.33;;;20.20;29.00;;;;;;10490752;28;20255;-69
2023/05/22 02:59:37;;;;;;;6.30;5.80;;;20.10;29.00;;;;;;10490958;28;20597;-70
2023/05/22 03:04:42;;;;;;;6.53;5.93;;;20.00;28.90;;;;;;10490588;28;20251;-69
2023/05/22 03:09:45;;;;;;;7.70;7.10;;;19.90;29.40;;;;;;10490605;28;20238;-70
2023/05/22 03:14:48;;;;;;;7.93;7.23;;;19.80;29.10;;;;;;10490546;28;20236;-69
2023/05/22 03:19:52;;;;;;;7.70;7.10;;;19.70;29.10;;;;;;10495110;28;20331;-70
2023/05/22 03:24:56;;;;;;;7.27;6.67;;;19.60;29.70;;;;;;10498887;28;20737;-70
2023/05/22 03:29:59;;;;;;;6.87;6.37;;;19.50;29.40;;;;;;10498285;28;20767;-70
2023/05/22 03:35:04;;;;;;;7.43;6.83;;;19.40;29.40;;;;;;10498909;28;20310;-69
2023/05/22 03:40:09;;;;;;;6.90;6.40;;;19.20;30.00;;;;;;10498154;28;20232;-70
2023/05/22 03:45:12;;;;;;;7.50;7.00;;;19.20;29.70;;;;;;10497812;28;20256;-69
2023/05/22 03:50:17;;;;;;;6.77;6.27;;;19.10;29.70;;;;;;10497646;28;20335;-69
2023/05/22 03:55:20;;;;;;;8.33;7.53;;;19.10;30.00;;;;;;10498039;28;20232;-70
2023/05/22 04:00:23;;;;;;;7.30;6.73;;;19.10;29.90;;;;;;10496823;28;20783;-70
2023/05/22 04:05:31;;;;;;;6.53;6.03;;;19.00;29.90;;;;;;10496611;28;20240;-70
2023/05/22 04:10:35;;;;;;;7.50;6.90;;;19.00;30.10;;;;;;10497009;28;20311;-70
2023/05/22 04:15:44;;;;;;;7.07;6.47;;;18.90;30.00;;;;;;10497140;28;20262;-70
2023/05/22 04:20:50;;;;;;;6.87;6.27;;;18.90;30.00;;;;;;10496698;28;20232;-70
2023/05/22 04:25:54;;;;;;;7.17;6.60;;;18.80;30.20;;;;;;10496227;28;20224;-70
2023/05/22 04:30:57;;;;;;;6.67;6.10;;;18.80;30.10;;;;;;10495921;28;20236;-71
2023/05/22 04:36:02;;;;;;;7.03;6.37;;;18.70;30.10;;;;;;10470875;28;20280;-70
2023/05/22 04:41:07;;;;;;;6.17;5.67;;;18.70;32.30;;;;;;10412582;28;20339;-70
2023/05/22 04:46:10;;;;;;;8.00;7.27;;;18.70;31.30;;;;;;10412101;28;20241;-71
2023/05/22 04:51:15;;;;;;;8.77;8.07;;;18.80;31.40;;;;;;10412488;28;20237;-70
2023/05/22 04:56:18;;;;;;;7.43;6.83;;;18.90;32.00;;;;;;10438452;28;20672;-70
2023/05/22 05:01:38;;;;;;;8.00;7.30;;;18.90;31.30;;;;;;10436533;28;20229;-70
2023/05/22 05:06:43;;;;;;;6.90;6.30;;;19.00;31.60;;;;;;10452081;28;20327;-70
2023/05/22 05:11:46;;;;;;;8.70;8.00;;;19.00;32.10;;;;;;10466673;28;20238;-70
2023/05/22 05:16:50;;;;;;;9.20;8.40;;;19.10;32.00;;;;;;10493194;28;20768;-70
2023/05/22 05:21:55;;;;;;;9.30;8.33;;;19.10;32.30;;;;;;10493492;28;20228;-70
2023/05/22 05:26:58;;;;;;;9.83;8.83;;;19.20;33.00;;;;;;10487193;28;20238;-70
2023/05/22 05:32:02;;;;;;;9.47;8.60;;;19.30;32.50;;;;;;10477248;28;20289;-70
2023/05/22 05:37:07;;;;;;;9.63;8.83;;;19.40;32.40;;;;;;10476528;28;20286;-70
2023/05/22 05:42:11;;;;;;;8.73;8.03;;;19.40;33.00;;;;;;10478899;28;20306;-70
2023/05/22 05:47:14;;;;;;;8.37;7.67;;;19.50;32.50;;;;;;10486565;28;20286;-71
2023/05/22 05:52:19;;;;;;;9.20;8.50;;;19.70;32.70;;;;;;10486162;28;20224;-70
2023/05/22 05:57:23;;;;;;;9.63;8.83;;;19.70;33.40;;;;;;10486314;28;20235;-70
2023/05/22 06:02:26;;;;;;;9.10;8.40;;;19.80;32.90;;;;;;10482436;28;20236;-71
2023/05/22 06:07:31;;;;;;;9.43;8.67;;;19.90;33.10;;;;;;10476798;28;20231;-70
2023/05/22 06:12:35;;;;;;;9.73;8.93;;;20.00;33.60;;;;;;10476694;28;20239;-70
2023/05/22 06:17:38;;;;;;;10.33;9.53;;;20.20;33.20;;;;;;10477643;28;20236;-70
2023/05/22 06:22:43;;;;;;;8.77;8.07;;;20.30;33.10;;;;;;10463464;28;20242;-71
2023/05/22 06:27:46;;;;;;;8.80;8.10;;;20.40;33.20;;;;;;10430809;28;20235;-71
2023/05/22 06:32:51;;;;;;;8.37;7.67;;;20.50;32.90;;;;;;10431319;28;20222;-71
2023/05/22 06:37:56;;;;;;;9.57;8.77;;;20.60;32.80;;;;;;10406943;28;20229;-71
2023/05/22 06:42:59;;;;;;;8.83;8.03;;;20.60;33.10;;;;;;10394356;28;20769;-70
2023/05/22 06:48:02;;;;;;;9.33;8.53;;;20.80;33.00;;;;;;10394064;28;20314;-69
2023/05/22 06:53:07;;;;;;;10.00;8.67;;;20.80;32.90;;;;;;10405117;28;20240;-71
2023/05/22 06:58:12;;;;;;;9.13;8.33;;;20.90;33.40;;;;;;10438350;28;20241;-70
2023/05/22 07:03:15;;;;;;;9.33;8.53;;;21.00;33.40;;;;;;10436757;28;20229;-71
2023/05/22 07:08:19;;;;;;;8.73;8.03;;;21.10;33.40;;;;;;10436180;28;20235;-70
2023/05/22 07:13:23;;;;;;;9.20;8.40;;;21.30;33.40;;;;;;10439361;28;20695;-70
2023/05/22 07:18:26;;;;;;;10.40;9.50;;;21.40;33.50;;;;;;10436897;28;20720;-70
2023/05/22 07:23:31;;;;;;;9.53;8.63;;;21.60;33.30;;;;;;10442753;28;20240;-70
2023/05/22 07:28:34;;;;;;;9.40;8.60;;;21.70;33.10;;;;;;10444606;28;20240;-71
2023/05/22 07:33:37;;;;;;;9.13;8.33;;;21.80;32.90;;;;;;10438043;28;20228;-70
2023/05/22 07:38:42;;;;;;;9.70;8.90;;;22.00;33.00;;;;;;10441124;28;20637;-70
2023/05/22 07:43:45;;;;;;;9.10;8.30;;;22.10;33.00;;;;;;10436554;28;20229;-70
2023/05/22 07:48:48;;;;;;;8.90;8.20;;;22.20;33.00;;;;;;10444041;28;20230;-71
2023/05/22 07:53:53;;;;;;;8.47;7.77;;;22.40;33.00;;;;;;10443223;28;20228;-70
2023/05/22 07:58:57;;;;;;;9.23;8.53;;;22.60;33.10;;;;;;10433474;28;20721;-70
2023/05/22 08:04:00;;;;;;;8.80;8.00;;;22.80;32.60;;;;;;10439208;28;20225;-70
2023/05/22 08:09:05;;;;;;;8.90;8.00;;;23.00;32.20;;;;;;10445604;28;20248;-72
2023/05/22 08:14:09;;;;;;;8.93;8.03;;;23.20;32.00;;;;;;10445969;28;20249;-71
2023/05/22 08:19:13;;;;;;;9.03;8.23;;;23.40;32.10;;;;;;10440286;28;20334;-72
2023/05/22 08:24:18;;;;;;;9.57;8.67;;;23.60;32.30;;;;;;10440083;28;20232;-71
2023/05/22 08:29:21;;;;;;;9.47;8.63;;;23.80;32.20;;;;;;10446017;28;20235;-71
2023/05/22 08:34:25;;;;;;;9.47;8.57;;;23.90;31.70;;;;;;10441603;28;20255;-72
2023/05/22 08:39:30;;;;;;;9.80;8.90;;;24.10;31.80;;;;;;10439780;28;20233;-71
2023/05/22 08:44:33;;;;;;;9.23;8.30;;;24.30;32.10;;;;;;10440528;28;20288;-71
2023/05/22 08:49:37;;;;;;;9.00;8.20;;;24.50;31.60;;;;;;10443818;28;20319;-72
2023/05/22 08:54:45;;;;;;;9.23;8.30;;;24.70;31.30;;;;;;10440259;28;20231;-72
2023/05/22 08:59:49;;;;;;;9.63;8.83;;;24.80;30.90;;;;;;10446845;28;20243;-72
2023/05/22 09:04:52;;;;;;;9.33;8.43;;;25.00;30.90;;;;;;10444209;28;20233;-72
2023/05/22 09:09:57;;;;;;;10.00;8.63;;;25.10;31.40;;;;;;10440586;28;20328;-72
2023/05/22 09:15:09;;;;;;;9.37;8.67;;;25.20;30.70;;;;;;10446599;28;20233;-72
2023/05/22 09:20:14;;;;;;;8.57;7.70;;;25.20;30.70;;;;;;10448703;28;20255;-72
2023/05/22 09:25:20;;;;;;;8.50;7.90;;;25.40;30.70;;;;;;10444943;28;20748;-72
2023/05/22 09:30:23;;;;;;;9.17;8.30;;;25.70;30.80;;;;;;10445109;28;20231;-72
2023/05/22 09:35:27;;;;;;;8.87;8.17;;;25.90;30.60;;;;;;10439213;28;20235;-72
2023/05/22 09:40:34;;;;;;;9.07;8.27;;;26.10;29.90;;;;;;10444190;28;20232;-71
2023/05/22 09:45:39;;;;;;;8.87;8.17;;;26.30;29.40;;;;;;10438700;28;20479;-72
2023/05/22 09:50:47;;;;;;;9.70;8.90;;;26.40;29.40;;;;;;10444275;28;20340;-72
2023/05/22 09:55:54;;;;;;;8.43;7.73;;;26.50;29.50;;;;;;10444694;28;20702;-71
2023/05/22 10:00:57;;;;;;;8.53;7.83;;;26.70;29.20;;;;;;10450071;28;20237;-70
2023/05/22 10:06:02;;;;;;;8.73;8.03;;;26.80;29.60;;;;;;10443948;28;20231;-71
2023/05/22 10:11:07;;;;;;;9.17;8.40;;;26.90;29.10;;;;;;10449953;28;20312;-71
2023/05/22 10:16:11;;;;;;;8.43;7.83;;;27.00;28.60;;;;;;10443137;28;20227;-71
2023/05/22 10:21:16;;;;;;;8.10;7.43;;;27.10;28.90;;;;;;10448788;28;20749;-71
2023/05/22 10:26:22;;;;;;;8.30;7.53;;;27.30;28.50;;;;;;10446591;28;20893;-71
2023/05/22 10:31:34;;;;;;;8.87;8.17;;;27.40;28.50;;;;;;10443603;28;20257;-72
2023/05/22 10:36:48;;;;;;;7.67;7.17;;;27.50;28.00;;;;;;10453120;28;20233;-71
2023/05/22 10:41:53;;;;;;;8.93;8.23;;;27.50;27.80;;;;;;10447378;28;21041;-71
2023/05/22 10:46:56;;;;;;;7.70;7.10;;;27.70;27.90;;;;;;10444120;28;20937;-71
2023/05/22 10:51:59;;;;;;;8.13;7.50;;;27.80;27.80;;;;;;10441898;28;20318;-71
2023/05/22 10:57:13;;;;;;;8.40;7.70;;;27.90;27.90;;;;;;10438464;28;20239;-73
2023/05/22 11:02:28;;;;;;;9.20;8.30;;;28.00;26.90;;;;;;10452418;28;20220;-73
2023/05/22 11:07:40;;;;;;;7.93;7.33;;;28.20;27.30;;;;;;10441560;28;20239;-73
2023/05/22 11:12:45;;;;;;;7.23;6.73;;;28.30;27.50;;;;;;10432068;28;20285;-72
2023/05/22 11:17:49;;;;;;;7.73;7.17;;;28.40;27.00;;;;;;10431544;28;20781;-72
2023/05/22 11:22:58;;;;;;;7.90;7.30;;;28.50;26.80;;;;;;10437575;28;20256;-72
2023/05/22 11:28:05;;;;;;;7.90;7.20;;;28.60;25.80;;;;;;10430277;28;20529;-72
2023/05/22 11:33:08;;;;;;;7.67;7.00;;;28.70;26.30;;;;;;10434855;28;20578;-71
2023/05/22 11:38:12;;;;;;;6.47;5.97;;;28.80;26.30;;;;;;10432379;28;20229;-71
2023/05/22 11:43:28;;;;;;;7.10;6.60;;;28.90;26.30;;;;;;10440031;28;20232;-72
2023/05/22 11:48:31;;;;;;;7.07;6.57;;;29.00;25.30;;;;;;10443298;28;20232;-71
2023/05/22 11:53:36;;;;;;;6.60;6.10;;;29.10;25.50;;;;;;10435683;28;20225;-72
2023/05/22 11:58:40;;;;;;;7.07;6.40;;;29.20;25.30;;;;;;10436346;28;20229;-68
2023/05/22 12:03:44;;;;;;;6.60;6.20;;;29.30;24.60;;;;;;10439163;28;20348;-69
2023/05/22 12:08:47;;;;;;;7.33;6.73;;;29.40;24.80;;;;;;10431595;28;20238;-69
2023/05/22 12:14:00;;;;;;;6.93;6.43;;;29.40;24.40;;;;;;10436442;28;20229;-69
2023/05/22 12:19:07;;;;;;;6.40;5.90;;;29.40;23.60;;;;;;10435996;28;21005;-69
2023/05/22 12:24:11;;;;;;;6.23;5.73;;;29.50;23.40;;;;;;10437321;28;20742;-69
2023/05/22 12:29:16;;;;;;;6.80;6.30;;;29.50;24.00;;;;;;10440195;28;20823;-70
2023/05/22 12:34:19;;;;;;;6.57;6.07;;;29.60;23.40;;;;;;10442067;28;20223;-69
2023/05/22 12:39:22;;;;;;;7.23;6.67;;;29.60;23.90;;;;;;10439973;28;20761;-70
2023/05/22 12:44:27;;;;;;;6.30;5.83;;;29.60;23.90;;;;;;10440222;28;20647;-69
2023/05/22 12:49:30;;;;;;;7.47;6.77;;;29.70;23.70;;;;;;10436445;28;20244;-71
2023/05/22 12:54:33;;;;;;;7.03;6.53;;;29.70;24.20;;;;;;10437089;28;20919;-70
2023/05/22 12:59:38;;;;;;;6.60;6.10;;;29.80;23.70;;;;;;10436655;28;20225;-69
2023/05/22 13:04:41;;;;;;;6.83;6.33;;;29.80;23.50;;;;;;10439351;28;20231;-70
2023/05/22 13:09:44;;;;;;;7.50;6.80;;;29.80;23.70;;;;;;10437112;28;20228;-70
2023/05/22 13:14:49;;;;;;;7.03;6.53;;;29.80;23.40;;;;;;10438352;28;20221;-69
2023/05/22 13:19:52;;;;;;;7.07;6.57;;;29.90;23.20;;;;;;10431743;28;20232;-69
2023/05/22 13:24:55;;;;;;;6.67;6.20;;;29.90;23.40;;;;;;10442793;28;21066;-70
2023/05/22 13:30:00;;;;;;;6.83;6.23;;;30.00;23.30;;;;;;10434868;28;20267;-70
2023/05/22 13:35:03;;;;;;;6.67;6.17;;;30.00;22.70;;;;;;10441540;28;20221;-70
2023/05/22 13:40:08;;;;;;;7.10;6.50;;;30.10;23.10;;;;;;10441200;28;20795;-70
2023/05/22 13:45:13;;;;;;;6.80;6.30;;;30.20;22.80;;;;;;10437255;28;20351;-70
2023/05/22 13:50:16;;;;;;;7.47;6.87;;;30.20;22.40;;;;;;10442555;28;20656;-70
2023/05/22 13:55:19;;;;;;;6.70;6.10;;;30.30;22.40;;;;;;10438995;28;20244;-69
2023/05/22 14:00:24;;;;;;;6.87;6.20;;;30.30;22.60;;;;;;10444346;28;20237;-70
2023/05/22 14:05:27;;;;;;;6.67;6.20;;;30.40;22.10;;;;;;10430058;28;20224;-71
2023/05/22 14:10:30;;;;;;;6.00;5.60;;;30.40;22.30;;;;;;10443716;28;20229;-70
2023/05/22 14:15:35;;;;;;;5.77;5.37;;;30.40;21.90;;;;;;10443608;28;20243;-70
2023/05/22 14:20:38;;;;;;;6.10;5.70;;;30.40;21.70;;;;;;10442608;28;20249;-70
2023/05/22 14:25:42;;;;;;;5.67;5.27;;;30.40;21.50;;;;;;10444769;28;20736;-70
2023/05/22 14:30:47;;;;;;;5.50;5.10;;;30.40;21.30;;;;;;10441592;28;20299;-70
2023/05/22 14:35:51;;;;;;;5.67;5.17;;;30.50;21.40;;;;;;10444547;28;20239;-70
2023/05/22 14:40:54;;;;;;;5.50;5.10;;;30.50;21.40;;;;;;10438302;28;20233;-70
2023/05/22 14:45:58;;;;;;;5.80;5.30;;;30.50;21.40;;;;;;10439023;28;20238;-70
2023/05/22 14:51:03;;;;;;;5.23;4.90;;;30.70;20.50;;;;;;10444559;28;20220;-69
2023/05/22 14:56:06;;;;;;;5.50;5.10;;;30.70;20.60;;;;;;10442142;28;20262;-70
2023/05/22 15:01:11;;;;;;;5.40;5.00;;;30.80;20.70;;;;;;10438323;28;20259;-70
2023/05/22 15:06:14;;;;;;;5.67;5.27;;;30.90;20.40;;;;;;10442192;28;20915;-70
2023/05/22 15:11:17;;;;;;;5.37;5.07;;;30.90;20.30;;;;;;10434670;28;20260;-70
2023/05/22 15:16:22;;;;;;;5.63;5.00;;;31.00;20.30;;;;;;10441742;28;20219;-70
2023/05/22 15:21:25;;;;;;;5.17;4.83;;;31.00;20.10;;;;;;10440201;28;20287;-70
2023/05/22 15:26:28;;;;;;;5.57;5.17;;;31.00;20.20;;;;;;10437328;28;20236;-70
2023/05/22 15:31:33;;;;;;;5.37;4.97;;;31.00;19.80;;;;;;10439904;28;20236;-70
2023/05/22 15:36:36;;;;;;;5.73;5.23;;;30.90;19.30;;;;;;10444053;28;20275;-69
2023/05/22 15:41:39;;;;;;;5.73;5.17;;;30.90;19.70;;;;;;10440989;28;20231;-70
2023/05/22 15:46:48;;;;;;;5.60;5.20;;;31.00;19.40;;;;;;10444239;28;20283;-71
2023/05/22 15:51:51;;;;;;;5.63;5.20;;;30.90;18.60;;;;;;10434745;28;20654;-70
2023/05/22 15:56:54;;;;;;;5.47;5.07;;;30.90;19.20;;;;;;10436332;28;20608;-70
2023/05/22 16:01:59;;;;;;;4.87;4.47;;;30.90;18.90;;;;;;10439105;28;20225;-70
2023/05/22 16:07:02;;;;;;;4.80;4.50;;;30.90;18.80;;;;;;10438159;28;20255;-70
2023/05/22 16:12:06;;;;;;;4.83;4.50;;;30.90;18.50;;;;;;10451731;28;20772;-70
2023/05/22 16:17:10;;;;;;;5.23;4.83;;;30.90;18.40;;;;;;10437424;28;20225;-70
2023/05/22 16:22:14;;;;;;;4.53;4.23;;;30.80;17.90;;;;;;10442303;28;20761;-70
2023/05/22 16:27:17;;;;;;;4.53;4.23;;;30.90;18.40;;;;;;10451340;28;20224;-70
2023/05/22 16:32:21;;;;;;;4.77;4.30;;;30.90;18.10;;;;;;10447105;28;20641;-70
2023/05/22 16:37:24;;;;;;;4.27;3.97;;;30.80;17.60;;;;;;10454966;28;20251;-70
2023/05/22 16:42:28;;;;;;;4.50;4.10;;;30.80;18.20;;;;;;10447615;28;20227;-70
2023/05/22 16:47:32;;;;;;;4.70;4.40;;;30.80;18.00;;;;;;10444481;28;20301;-70
2023/05/22 16:52:36;;;;;;;4.83;4.43;;;30.80;17.80;;;;;;10449926;28;20328;-70
2023/05/22 16:57:39;;;;;;;4.60;4.30;;;30.80;17.70;;;;;;10455867;28;20259;-70
2023/05/22 17:02:44;;;;;;;4.90;4.53;;;30.70;17.70;;;;;;10442965;28;20237;-70
2023/05/22 17:07:48;;;;;;;4.80;4.40;;;30.70;18.10;;;;;;10448353;28;20264;-70
2023/05/22 17:12:51;;;;;;;4.67;4.37;;;30.60;18.20;;;;;;10436460;28;20332;-70
2023/05/22 17:17:56;;;;;;;5.63;5.13;;;30.60;18.20;;;;;;10446035;28;20227;-69
2023/05/22 17:22:59;;;;;;;10.97;9.97;;;30.60;18.60;;;;;;10444826;28;20225;-69
2023/05/22 17:28:02;;;;;;;6.80;6.30;;;30.50;18.80;;;;;;10445416;28;20323;-70
2023/05/22 17:33:07;;;;;;;5.80;5.27;;;30.50;19.30;;;;;;10439647;28;20333;-70
2023/05/22 17:38:10;;;;;;;5.03;4.70;;;30.40;19.40;;;;;;10443045;28;20220;-70
2023/05/22 17:43:15;;;;;;;5.23;4.87;;;30.30;19.80;;;;;;10433750;28;20240;-70
2023/05/22 17:48:22;;;;;;;5.10;4.70;;;30.20;20.00;;;;;;10441596;28;20576;-70
2023/05/22 17:53:30;;;;;;;5.07;4.67;;;30.20;20.20;;;;;;10449345;28;20233;-70
2023/05/22 17:58:34;;;;;;;5.77;5.37;;;30.10;20.10;;;;;;10446650;28;20315;-70
2023/05/22 18:03:38;;;;;;;5.30;4.90;;;30.00;19.80;;;;;;10445318;28;20240;-69
2023/05/22 18:08:42;;;;;;;5.40;5.00;;;29.90;20.60;;;;;;10438930;28;20234;-69
2023/05/22 18:13:45;;;;;;;5.20;4.80;;;29.80;20.50;;;;;;10440640;28;20225;-70
2023/05/22 18:18:49;;;;;;;5.87;5.00;;;29.60;20.60;;;;;;10441165;28;20240;-71
2023/05/22 18:23:53;;;;;;;5.87;5.33;;;29.50;20.90;;;;;;10430522;28;20233;-70
2023/05/22 18:28:56;;;;;;;5.73;5.27;;;29.30;20.70;;;;;;10433177;28;20239;-70
2023/05/22 18:34:00;;;;;;;5.17;4.83;;;29.20;20.70;;;;;;10436432;28;20231;-71
2023/05/22 18:39:06;;;;;;;5.77;5.30;;;29.00;20.60;;;;;;10435637;28;20967;-70
2023/05/22 18:44:09;;;;;;;5.53;5.13;;;28.90;21.10;;;;;;10435185;28;20225;-71
2023/05/22 18:49:14;;;;;;;5.63;5.20;;;28.80;20.80;;;;;;10434335;28;20340;-70
2023/05/22 18:54:17;;;;;;;6.07;5.57;;;28.60;21.30;;;;;;10436995;28;20337;-70
2023/05/22 18:59:21;;;;;;;5.07;4.67;;;28.40;21.20;;;;;;10438399;28;20713;-70
2023/05/22 19:04:26;;;;;;;6.03;5.60;;;28.20;21.50;;;;;;10437527;28;20231;-70
2023/05/22 19:09:29;;;;;;;5.70;5.30;;;28.00;21.60;;;;;;10435651;28;20315;-70
2023/05/22 19:14:33;;;;;;;6.63;6.03;;;27.90;21.80;;;;;;10436612;28;20229;-70
2023/05/22 19:19:38;;;;;;;6.87;6.27;;;27.70;21.90;;;;;;10437207;28;20324;-70
2023/05/22 19:24:41;;;;;;;6.87;6.17;;;27.60;22.30;;;;;;10435451;28;20324;-71
2023/05/22 19:29:45;;;;;;;8.70;5.97;;;27.30;22.30;;;;;;10435095;28;20958;-70
2023/05/22 19:34:49;;;;;;;7.43;6.03;;;27.00;22.50;;;;;;10432789;28;20240;-73
2023/05/22 19:39:53;;;;;;;6.10;5.60;;;26.70;23.20;;;;;;10430960;28;20783;-72
2023/05/22 19:44:56;;;;;;;6.70;6.10;;;26.50;23.30;;;;;;10436892;28;20332;-72
2023/05/22 19:50:01;;;;;;;6.93;6.33;;;26.40;23.60;;;;;;10433778;28;20301;-72
2023/05/22 19:55:08;;;;;;;6.50;6.00;;;26.30;23.90;;;;;;10435367;28;20316;-72
2023/05/22 20:00:12;;;;;;;8.33;6.17;;;26.10;23.90;;;;;;10439329;28;20311;-72
2023/05/22 20:05:17;;;;;;;6.47;5.70;;;25.80;24.10;;;;;;10442539;28;20809;-69
2023/05/22 20:10:22;;;;;;;6.13;5.63;;;25.60;24.90;;;;;;10450091;28;20232;-69
2023/05/22 20:15:25;;;;;;;6.87;6.30;;;25.40;24.90;;;;;;10457008;28;20226;-72
2023/05/22 20:20:30;;;;;;;6.97;6.37;;;25.40;25.10;;;;;;10443818;28;20239;-70
2023/05/22 20:25:34;;;;;;;7.20;6.47;;;25.40;25.40;;;;;;10443527;28;20694;-69
2023/05/22 20:30:37;;;;;;;7.27;6.57;;;25.30;25.20;;;;;;10443555;28;20233;-70
2023/05/22 20:35:41;;;;;;;7.10;6.50;;;25.30;25.40;;;;;;10439091;28;20662;-70
2023/05/22 20:40:46;;;;;;;6.20;5.70;;;25.20;25.60;;;;;;10434734;28;20242;-70
2023/05/22 20:45:49;;;;;;;7.03;6.53;;;25.20;25.60;;;;;;10431866;28;20230;-70
2023/05/22 20:50:54;;;;;;;8.03;7.33;;;25.10;25.70;;;;;;10442186;28;20314;-70
2023/05/22 20:55:58;;;;;;;7.03;6.43;;;25.00;26.10;;;;;;10435957;28;20308;-70
2023/05/22 21:01:01;;;;;;;7.63;6.57;;;24.90;25.70;;;;;;10440851;28;20233;-70
2023/05/22 21:06:06;;;;;;;7.60;7.00;;;24.90;26.00;;;;;;10433982;28;20221;-70
2023/05/22 21:11:09;;;;;;;8.00;7.37;;;24.80;26.70;;;;;;10436190;28;20251;-70
2023/05/22 21:16:13;;;;;;;7.17;6.67;;;24.70;26.30;;;;;;10438005;28;20228;-70
2023/05/22 21:21:20;;;;;;;7.77;7.10;;;24.60;26.30;;;;;;10439329;28;20315;-70
2023/05/22 21:26:23;;;;;;;8.37;7.70;;;24.50;26.90;;;;;;10443580;28;20261;-69
2023/05/22 21:31:26;;;;;;;8.63;7.93;;;24.40;26.40;;;;;;10440816;28;20915;-70
2023/05/22 21:36:31;;;;;;;8.47;7.57;;;24.30;26.50;;;;;;10447369;28;20236;-70
2023/05/22 21:41:34;;;;;;;7.77;7.10;;;24.20;27.10;;;;;;10444455;28;20227;-70
2023/05/22 21:46:37;;;;;;;9.20;8.30;;;24.10;26.70;;;;;;10441130;28;20235;-70
2023/05/22 21:51:42;;;;;;;9.53;8.20;;;23.90;26.90;;;;;;10448957;28;20240;-70
2023/05/22 21:56:45;;;;;;;8.33;7.57;;;23.80;27.40;;;;;;10445006;28;20367;-70
2023/05/22 22:01:48;;;;;;;9.10;8.17;;;23.70;27.10;;;;;;10440976;28;20229;-72
2023/05/22 22:06:53;;;;;;;9.23;8.13;;;23.60;27.70;;;;;;10446175;28;20228;-71
2023/05/22 22:11:56;;;;;;;8.30;7.60;;;23.40;27.60;;;;;;10440215;28;20236;-70
2023/05/22 22:16:59;;;;;;;8.57;7.77;;;23.30;27.50;;;;;;10450006;28;20233;-70
2023/05/22 22:22:04;;;;;;;9.17;8.27;;;23.20;27.50;;;;;;10445114;28;20231;-70
2023/05/22 22:27:07;;;;;;;9.20;8.40;;;23.10;28.20;;;;;;10447598;28;20256;-70
2023/05/22 22:32:11;;;;;;;8.80;8.00;;;23.10;27.70;;;;;;10441741;28;20895;-71
2023/05/22 22:37:17;;;;;;;8.47;7.77;;;22.90;27.70;;;;;;10442811;28;20229;-70
2023/05/22 22:42:20;;;;;;;8.83;8.03;;;22.80;28.40;;;;;;10445656;28;20310;-70
2023/05/22 22:47:24;;;;;;;7.97;7.37;;;22.70;28.20;;;;;;10444601;28;20315;-70
2023/05/22 22:52:29;;;;;;;8.77;8.07;;;22.70;28.20;;;;;;10438796;28;20887;-70
2023/05/22 22:57:32;;;;;;;9.97;8.97;;;22.60;28.80;;;;;;10438618;28;21073;-70
2023/05/22 23:02:35;;;;;;;8.73;8.00;;;22.60;28.70;;;;;;10443376;28;20724;-71
2023/05/22 23:07:40;;;;;;;8.73;8.03;;;22.50;28.60;;;;;;10439201;28;20232;-70
2023/05/22 23:12:43;;;;;;;9.17;8.37;;;22.40;29.10;;;;;;10439193;28;20228;-70
2023/05/22 23:17:46;;;;;;;9.93;8.93;;;22.40;28.80;;;;;;10440468;28;20228;-70
2023/05/22 23:22:54;;;;;;;9.50;8.67;;;22.40;29.00;;;;;;10436731;28;20232;-70
2023/05/22 23:27:58;;;;;;;8.23;7.63;;;22.30;29.20;;;;;;10439045;28;20235;-70
2023/05/22 23:33:01;;;;;;;9.30;8.50;;;22.20;28.80;;;;;;10437878;28;20225;-70
2023/05/22 23:38:06;;;;;;;9.40;8.50;;;22.10;29.10;;;;;;10444884;28;20221;-70
2023/05/22 23:43:09;;;;;;;7.60;7.00;;;22.00;29.60;;;;;;10452294;28;20307;-70
2023/05/22 23:48:12;;;;;;;8.27;7.57;;;21.90;29.30;;;;;;10450626;28;20216;-70
2023/05/22 23:53:17;;;;;;;8.90;8.10;;;21.80;29.40;;;;;;10446531;28;20237;-70
2023/05/22 23:58:20;;;;;;;8.37;7.67;;;21.80;29.70;;;;;;10444243;28;20314;-70
